Time;durP1;ratioP1;P1;durP2;ratioP2;P2;SDS_P1;SDS_P2;PMS_P1;PMS_P2;Temp;Humidity;BMP_temperature;BMP_pressure;BME280_temperature;BME280_humidity;BME280_pressure;Samples;Min_cycle;Max_cycle;Signal;HPM_P1;HPM_P2
2021/12/20 09:18:48;;;;;;;17.10;4.50;;;4.60;99.90;;;;;;5091802;28;20394;-62
2021/12/20 09:21:15;;;;;;;13.73;4.05;;;4.60;99.90;;;;;;5090024;28;20052;-63
2021/12/20 09:23:41;;;;;;;15.90;3.70;;;4.70;99.90;;;;;;5090663;28;20404;-62
2021/12/20 09:26:07;;;;;;;;;;;4.70;99.90;;;;;;5090139;28;20044;-62
2021/12/20 09:28:34;;;;;;;17.52;4.10;;;4.70;99.90;;;;;;5069720;28;19920;-62
2021/12/20 09:31:00;;;;;;;11.18;3.88;;;4.70;99.90;;;;;;5070649;28;20092;-62
2021/12/20 09:33:27;;;;;;;18.80;4.15;;;4.70;99.90;;;;;;5071294;28;20044;-61
2021/12/20 09:35:53;;;;;;;19.10;4.70;;;4.70;99.90;;;;;;5070407;28;20051;-60
2021/12/20 09:38:20;;;;;;;;;;;4.70;99.90;;;;;;5069691;28;20049;-62
2021/12/20 09:43:47;;;;;;;19.33;4.60;;;4.80;99.90;;;;;;5066976;28;20052;-59
2021/12/20 09:49:54;;;;;;;14.70;4.20;;;4.80;99.90;;;;;;5070094;28;20090;-61
2021/12/20 09:52:19;;;;;;;18.92;4.38;;;4.80;99.90;;;;;;5070177;28;20049;-60
2021/12/20 09:54:45;;;;;;;15.45;3.90;;;4.90;99.90;;;;;;5070065;28;20076;-62
2021/12/20 09:57:15;;;;;;;17.38;4.00;;;4.90;99.90;;;;;;5068923;28;20373;-61
2021/12/20 09:59:43;;;;;;;13.15;3.70;;;4.90;99.90;;;;;;5064834;28;20366;-62
2021/12/20 10:02:09;;;;;;;19.67;4.25;;;5.00;99.90;;;;;;5063356;28;20048;-64
2021/12/20 10:04:35;;;;;;;;;;;5.00;99.90;;;;;;5069972;28;20116;-61
2021/12/20 10:07:02;;;;;;;16.00;3.80;;;5.00;99.90;;;;;;5067902;28;20459;-59
2021/12/20 10:09:32;;;;;;;19.08;3.35;;;5.00;99.90;;;;;;5058005;28;20106;-60
2021/12/20 10:12:16;;;;;;;19.45;2.88;;;5.10;99.90;;;;;;5069847;28;20048;-60
2021/12/20 10:15:18;;;;;;;18.75;3.08;;;5.10;99.90;;;;;;5069679;28;20464;-60
2021/12/20 10:17:59;;;;;;;14.23;3.40;;;5.10;99.90;;;;;;5067092;28;20435;-60
2021/12/20 10:20:36;;;;;;;12.98;3.35;;;5.10;99.90;;;;;;5069374;28;20532;-61
2021/12/20 10:23:10;;;;;;;;;;;5.10;99.90;;;;;;5069002;28;20493;-61
2021/12/20 10:25:36;;;;;;;27.42;4.55;;;5.10;99.90;;;;;;5067409;28;19927;-60
2021/12/20 10:28:10;;;;;;;23.88;5.03;;;5.10;99.90;;;;;;5066824;28;20400;-61
2021/12/20 10:30:40;;;;;;;21.25;3.55;;;5.20;99.90;;;;;;5050419;28;20063;-60
2021/12/20 10:33:57;;;;;;;20.52;3.65;;;5.10;99.90;;;;;;5046818;28;20116;-67
2021/12/20 10:36:51;;;;;;;20.83;3.75;;;5.20;99.90;;;;;;5035081;28;20049;-61
2021/12/20 10:39:31;;;;;;;16.60;3.22;;;5.20;99.90;;;;;;5048445;28;20059;-61
2021/12/20 10:42:00;;;;;;;18.50;3.63;;;5.20;99.90;;;;;;5055066;28;20131;-61
2021/12/20 10:44:25;;;;;;;17.88;3.40;;;5.20;99.90;;;;;;5055054;28;20045;-60
2021/12/20 10:46:58;;;;;;;16.85;3.45;;;5.20;99.90;;;;;;5056394;28;20056;-60
2021/12/20 10:49:27;;;;;;;16.73;3.17;;;5.20;99.90;;;;;;5055290;28;20091;-61
2021/12/20 10:51:52;;;;;;;15.43;3.40;;;5.30;99.90;;;;;;5054932;28;20049;-62
2021/12/20 10:54:22;;;;;;;19.20;3.63;;;5.30;99.90;;;;;;5055081;28;20508;-61
2021/12/20 10:57:00;;;;;;;18.73;3.42;;;5.30;99.90;;;;;;5054709;28;20056;-61
2021/12/20 10:59:29;;;;;;;22.23;3.80;;;5.30;99.90;;;;;;5053610;28;20052;-61
2021/12/20 11:04:27;;;;;;;18.73;3.60;;;5.30;99.90;;;;;;5056317;28;20086;-61
2021/12/20 11:09:41;;;;;;;18.45;3.50;;;5.40;99.90;;;;;;5056106;28;20104;-60
2021/12/20 11:12:10;;;;;;;18.98;3.38;;;5.40;99.90;;;;;;5055723;28;20049;-63
2021/12/20 11:14:44;;;;;;;16.90;2.95;;;5.40;99.90;;;;;;5055070;28;20400;-61
2021/12/20 11:17:15;;;;;;;16.63;3.45;;;5.40;99.90;;;;;;5055641;28;20061;-62
2021/12/20 11:19:45;;;;;;;18.40;3.08;;;5.40;99.90;;;;;;5055902;28;20071;-61
2021/12/20 11:22:20;;;;;;;18.85;3.83;;;5.40;99.90;;;;;;5055318;28;20124;-62
2021/12/20 11:24:55;;;;;;;25.25;4.43;;;5.40;99.90;;;;;;5055317;28;20476;-61
2021/12/20 11:27:25;;;;;;;18.75;4.20;;;5.40;99.90;;;;;;5054037;28;20127;-62
2021/12/20 11:30:04;;;;;;;22.55;4.25;;;5.40;99.90;;;;;;5055204;28;20049;-63
2021/12/20 11:32:31;;;;;;;19.02;3.65;;;5.50;99.90;;;;;;5052208;28;20041;-61
2021/12/20 11:34:57;;;;;;;19.98;4.10;;;5.40;99.90;;;;;;5053229;28;20060;-62
2021/12/20 11:37:26;;;;;;;23.23;4.30;;;5.50;99.90;;;;;;5053787;28;20037;-61
2021/12/20 11:39:54;;;;;;;17.58;4.07;;;5.50;99.90;;;;;;5052507;28;20048;-61
2021/12/20 11:42:20;;;;;;;22.50;4.68;;;5.50;99.90;;;;;;5052053;28;20481;-62
2021/12/20 11:44:47;;;;;;;;;;;5.50;99.90;;;;;;5054547;28;20389;-61
2021/12/20 11:47:33;;;;;;;18.15;3.83;;;5.50;99.90;;;;;;5054521;28;20287;-61
2021/12/20 11:50:10;;;;;;;23.30;4.45;;;5.60;99.90;;;;;;5053810;28;20102;-64
2021/12/20 11:52:39;;;;;;;24.80;4.63;;;5.60;99.90;;;;;;5054800;28;20128;-62
2021/12/20 11:55:19;;;;;;;25.15;4.50;;;5.70;99.90;;;;;;5053599;28;20041;-61
2021/12/20 11:57:53;;;;;;;22.17;4.13;;;5.70;99.90;;;;;;5053179;28;20045;-61
2021/12/20 12:00:34;;;;;;;20.25;4.10;;;5.70;99.90;;;;;;5054326;28;20045;-61
2021/12/20 12:03:15;;;;;;;25.20;4.80;;;5.70;99.90;;;;;;5054803;28;20099;-62
2021/12/20 12:05:53;;;;;;;23.67;4.30;;;5.70;99.90;;;;;;5054945;28;20063;-61
2021/12/20 12:08:39;;;;;;;25.45;4.30;;;5.70;99.90;;;;;;5054196;28;20045;-61
2021/12/20 12:11:04;;;;;;;28.55;4.40;;;5.70;99.90;;;;;;5054310;28;20048;-61
2021/12/20 12:13:35;;;;;;;18.65;4.18;;;5.80;99.90;;;;;;5049167;28;20055;-62
2021/12/20 12:16:04;;;;;;;23.40;5.07;;;5.80;99.90;;;;;;5042114;28;20045;-61
2021/12/20 12:18:49;;;;;;;21.83;4.72;;;5.80;99.90;;;;;;5041637;28;20088;-62
2021/12/20 12:21:33;;;;;;;24.08;3.70;;;5.80;99.90;;;;;;5043783;28;20052;-62
2021/12/20 12:24:00;;;;;;;19.77;3.95;;;5.80;99.90;;;;;;5050557;28;20107;-63
2021/12/20 12:26:35;;;;;;;24.73;4.10;;;5.80;99.90;;;;;;5030715;28;20045;-63
2021/12/20 12:29:02;;;;;;;21.10;4.00;;;5.80;99.90;;;;;;5064078;28;20052;-61
2021/12/20 12:31:57;;;;;;;23.33;4.00;;;5.80;99.90;;;;;;5045379;28;20041;-61
2021/12/20 12:34:37;;;;;;;17.73;3.25;;;5.80;99.90;;;;;;5052405;28;20509;-62
2021/12/20 12:37:23;;;;;;;19.35;3.83;;;5.80;99.90;;;;;;5049687;28;20065;-62
2021/12/20 12:39:49;;;;;;;18.02;3.88;;;5.80;99.90;;;;;;5034064;28;20045;-63
2021/12/20 12:42:15;;;;;;;19.63;3.67;;;5.80;99.90;;;;;;5032979;28;20514;-62
2021/12/20 12:44:50;;;;;;;18.77;3.70;;;5.80;99.90;;;;;;5039014;28;20041;-62
2021/12/20 12:47:32;;;;;;;19.45;3.45;;;5.80;99.90;;;;;;5044034;28;20401;-62
2021/12/20 12:49:58;;;;;;;16.00;3.30;;;5.80;99.90;;;;;;5055926;28;20124;-61
2021/12/20 12:52:24;;;;;;;21.75;3.45;;;5.80;99.90;;;;;;5044198;28;20055;-64
2021/12/20 12:54:56;;;;;;;17.23;3.42;;;5.80;99.90;;;;;;5053025;28;20065;-62
2021/12/20 12:57:21;;;;;;;16.98;3.00;;;5.70;99.90;;;;;;5048999;28;20045;-62
2021/12/20 12:59:50;;;;;;;18.88;3.60;;;5.80;99.90;;;;;;5052271;28;20099;-61
2021/12/20 13:02:25;;;;;;;15.00;3.60;;;5.80;99.90;;;;;;5053443;28;20041;-62
2021/12/20 13:04:58;;;;;;;19.75;3.20;;;5.80;99.90;;;;;;5053759;28;20123;-62
2021/12/20 13:08:04;;;;;;;15.23;3.03;;;5.80;99.90;;;;;;5053551;28;20171;-61
2021/12/20 13:10:40;;;;;;;18.70;3.25;;;5.80;99.90;;;;;;5011584;28;20053;-63
2021/12/20 13:13:15;;;;;;;12.57;3.17;;;5.80;99.90;;;;;;5049094;28;20448;-62
2021/12/20 13:15:48;;;;;;;17.00;3.08;;;5.80;99.90;;;;;;5053683;28;20539;-63
2021/12/20 13:18:22;;;;;;;18.77;2.95;;;5.80;99.90;;;;;;5049560;28;20485;-62
2021/12/20 13:21:01;;;;;;;14.18;3.13;;;5.80;99.90;;;;;;5046007;28;20460;-61
2021/12/20 13:23:46;;;;;;;17.40;3.65;;;5.80;99.90;;;;;;5051117;28;20052;-61
2021/12/20 13:26:17;;;;;;;16.27;3.40;;;5.80;99.90;;;;;;5053646;28;20465;-62
2021/12/20 13:28:51;;;;;;;16.15;3.03;;;5.80;99.90;;;;;;5053149;28;20067;-62
2021/12/20 13:31:22;;;;;;;12.07;2.67;;;5.80;99.90;;;;;;5053248;28;20481;-62
2021/12/20 13:33:53;;;;;;;12.52;2.33;;;5.80;99.90;;;;;;5069229;28;20045;-61
2021/12/20 13:36:25;;;;;;;15.70;2.50;;;5.80;99.90;;;;;;5053174;28;20053;-64
2021/12/20 13:38:56;;;;;;;13.10;2.63;;;5.80;99.90;;;;;;5068312;28;20140;-62
2021/12/20 13:42:05;;;;;;;13.05;2.92;;;5.80;99.90;;;;;;5053386;28;20392;-62
2021/12/20 13:44:32;;;;;;;11.63;2.58;;;5.70;99.90;;;;;;5053114;28;20045;-62
2021/12/20 13:47:04;;;;;;;13.90;2.70;;;5.70;99.90;;;;;;5052066;28;20494;-62
2021/12/20 13:49:30;;;;;;;16.70;2.80;;;5.70;99.90;;;;;;5053391;28;20061;-62
2021/12/20 13:52:04;;;;;;;12.15;2.78;;;5.70;99.90;;;;;;5052998;28;20041;-62
2021/12/20 13:54:39;;;;;;;19.17;3.20;;;5.70;99.90;;;;;;5053557;28;20054;-62
2021/12/20 13:57:23;;;;;;;15.55;2.85;;;5.70;99.90;;;;;;5070445;28;20123;-61
2021/12/20 13:59:52;;;;;;;11.13;2.70;;;5.70;99.90;;;;;;5065482;28;20064;-64
2021/12/20 14:02:26;;;;;;;12.85;2.13;;;5.70;99.90;;;;;;5050351;28;20560;-61
2021/12/20 14:04:54;;;;;;;13.93;2.63;;;5.70;99.90;;;;;;5055585;28;20473;-61
2021/12/20 14:07:30;;;;;;;15.57;2.90;;;5.70;99.90;;;;;;5047657;28;20071;-61
2021/12/20 14:10:10;;;;;;;11.77;2.30;;;5.60;99.90;;;;;;5044406;28;20041;-61
2021/12/20 14:12:39;;;;;;;13.52;2.85;;;5.70;99.90;;;;;;5047119;28;20048;-61
2021/12/20 14:15:19;;;;;;;10.88;1.90;;;5.60;99.90;;;;;;5044284;28;20044;-60
2021/12/20 14:17:57;;;;;;;9.40;2.42;;;5.60;99.90;;;;;;5035153;28;20498;-61
2021/12/20 14:20:52;;;;;;;11.32;2.47;;;5.60;99.90;;;;;;5042241;28;20079;-61
2021/12/20 14:23:31;;;;;;;11.68;2.40;;;5.60;99.90;;;;;;5043349;28;20504;-61
2021/12/20 14:26:13;;;;;;;10.75;2.55;;;5.50;99.90;;;;;;5047701;28;21655;-62
2021/12/20 14:28:48;;;;;;;13.05;2.50;;;5.50;99.90;;;;;;5047015;28;20083;-63
2021/12/20 14:31:36;;;;;;;11.18;2.63;;;5.40;99.90;;;;;;5045587;28;20100;-64
2021/12/20 14:34:05;;;;;;;13.00;3.15;;;5.40;99.90;;;;;;5044337;28;20037;-62
2021/12/20 14:36:39;;;;;;;12.07;2.50;;;5.40;99.90;;;;;;5055430;28;20051;-62
2021/12/20 14:39:13;;;;;;;14.02;2.80;;;5.40;99.90;;;;;;5056237;28;20374;-62
2021/12/20 14:41:41;;;;;;;15.75;3.15;;;5.30;99.90;;;;;;5057243;28;20427;-62
2021/12/20 14:47:09;;;;;;;15.10;2.83;;;5.30;99.90;;;;;;5046270;28;20080;-68
2021/12/20 14:49:52;;;;;;;16.92;3.25;;;5.20;99.90;;;;;;5054562;28;20080;-61
2021/12/20 14:52:21;;;;;;;11.10;2.63;;;5.20;99.90;;;;;;5055318;28;20132;-62
2021/12/20 14:54:52;;;;;;;11.32;3.55;;;5.20;99.90;;;;;;5056075;28;20393;-62
2021/12/20 14:57:23;;;;;;;10.38;2.90;;;5.20;99.90;;;;;;5055897;28;20090;-66
2021/12/20 14:59:52;;;;;;;12.60;3.50;;;5.10;99.90;;;;;;5055694;28;20084;-61
2021/12/20 15:02:28;;;;;;;13.45;3.47;;;5.10;99.90;;;;;;5046899;28;20041;-62
2021/12/20 15:04:54;;;;;;;13.55;3.42;;;5.10;99.90;;;;;;5044450;28;20084;-62
2021/12/20 15:07:21;;;;;;;13.90;3.63;;;5.00;99.90;;;;;;5045531;28;20052;-62
2021/12/20 15:09:47;;;;;;;13.48;3.33;;;5.00;99.90;;;;;;5042906;28;20076;-62
2021/12/20 15:12:12;;;;;;;18.40;3.60;;;4.90;99.90;;;;;;5044112;28;20073;-61
2021/12/20 15:14:38;;;;;;;12.93;3.55;;;4.80;99.90;;;;;;5044676;28;20095;-61
2021/12/20 15:17:05;;;;;;;13.93;3.35;;;4.70;99.90;;;;;;5045782;28;20135;-61
2021/12/20 15:19:30;;;;;;;13.63;3.05;;;4.60;99.90;;;;;;5044407;28;20106;-61
2021/12/20 15:21:56;;;;;;;11.15;3.47;;;4.60;99.90;;;;;;5046820;28;20439;-61
2021/12/20 15:24:22;;;;;;;14.88;3.38;;;4.50;99.90;;;;;;5043112;28;20175;-61
2021/12/20 15:26:48;;;;;;;28.23;9.35;;;4.40;99.90;;;;;;5045851;28;20486;-62
2021/12/20 15:29:15;;;;;;;70.63;19.48;;;4.30;99.90;;;;;;5043736;28;20041;-62
2021/12/20 15:31:42;;;;;;;38.85;11.40;;;4.30;99.90;;;;;;5044130;28;20049;-60
2021/12/20 15:34:11;;;;;;;23.42;7.65;;;4.20;99.90;;;;;;5042806;28;20057;-60
2021/12/20 15:36:36;;;;;;;21.92;7.00;;;4.10;99.90;;;;;;5046576;28;20485;-61
2021/12/20 15:39:06;;;;;;;20.92;7.30;;;4.00;99.90;;;;;;5043372;28;20049;-60
2021/12/20 15:41:32;;;;;;;14.40;6.03;;;4.00;99.90;;;;;;5047004;28;20134;-61
2021/12/20 15:44:00;;;;;;;16.63;6.60;;;3.90;99.90;;;;;;5041865;28;20473;-61
2021/12/20 15:46:27;;;;;;;14.27;6.90;;;3.80;99.90;;;;;;5045800;28;20041;-60
2021/12/20 15:48:53;;;;;;;15.90;7.78;;;3.80;99.90;;;;;;5043818;28;20037;-63
2021/12/20 15:51:21;;;;;;;13.13;5.35;;;3.80;99.90;;;;;;5041749;28;20063;-62
2021/12/20 15:53:48;;;;;;;18.02;6.70;;;3.70;99.90;;;;;;5044857;28;20433;-61
2021/12/20 15:56:14;;;;;;;20.48;6.72;;;3.60;99.90;;;;;;5043450;28;20153;-60
2021/12/20 15:58:40;;;;;;;;;;;3.60;99.90;;;;;;5042718;28;20071;-61
2021/12/20 16:01:05;;;;;;;32.00;14.93;;;3.50;99.90;;;;;;5045107;28;19944;-62
2021/12/20 16:03:31;;;;;;;25.75;12.82;;;3.50;99.90;;;;;;5043344;28;20053;-63
2021/12/20 16:06:00;;;;;;;25.45;11.70;;;3.40;99.90;;;;;;5044782;28;20045;-61
2021/12/20 16:08:27;;;;;;;25.60;13.38;;;3.40;99.90;;;;;;5044956;28;20045;-61
2021/12/20 16:10:53;;;;;;;21.67;10.00;;;3.30;99.90;;;;;;5043622;28;20041;-61
2021/12/20 16:13:22;;;;;;;17.98;7.03;;;3.30;99.90;;;;;;5042286;28;20124;-61
2021/12/20 16:15:51;;;;;;;15.93;5.72;;;3.20;99.90;;;;;;5041147;28;20051;-61
2021/12/20 16:18:17;;;;;;;13.82;4.18;;;3.20;99.90;;;;;;5034280;28;20053;-61
2021/12/20 16:20:43;;;;;;;19.38;5.28;;;3.10;99.90;;;;;;5034257;28;20566;-61
2021/12/20 16:23:09;;;;;;;18.08;7.20;;;3.00;99.90;;;;;;5033302;28;20075;-60
2021/12/20 16:25:35;;;;;;;15.15;5.53;;;3.00;99.90;;;;;;5034044;28;20054;-61
2021/12/20 16:28:02;;;;;;;10.98;4.55;;;2.90;99.90;;;;;;5033696;28;20084;-61
2021/12/20 16:30:28;;;;;;;10.93;4.68;;;2.90;99.90;;;;;;5034128;28;20064;-61
2021/12/20 16:32:54;;;;;;;11.93;4.63;;;2.80;99.90;;;;;;5034210;28;20049;-62
2021/12/20 16:35:23;;;;;;;16.73;5.15;;;2.80;99.90;;;;;;5033461;28;20049;-62
2021/12/20 16:37:49;;;;;;;14.60;4.60;;;2.80;99.90;;;;;;5034081;28;20041;-61
2021/12/20 16:40:17;;;;;;;11.55;4.43;;;2.80;99.90;;;;;;5033098;28;20400;-61
2021/12/20 16:42:44;;;;;;;13.75;5.05;;;2.70;99.90;;;;;;5039566;28;20055;-61
2021/12/20 16:45:11;;;;;;;16.10;5.32;;;2.70;99.90;;;;;;5041862;28;20718;-61
2021/12/20 16:47:39;;;;;;;12.45;5.38;;;2.70;99.90;;;;;;5050754;28;20071;-61
2021/12/20 16:50:11;;;;;;;16.40;7.40;;;2.60;99.90;;;;;;5034235;28;20080;-62
2021/12/20 16:52:38;;;;;;;16.83;6.45;;;2.60;99.90;;;;;;5032820;28;20057;-61
2021/12/20 16:55:05;;;;;;;13.27;6.97;;;2.60;99.90;;;;;;5033826;28;20103;-61
2021/12/20 16:57:31;;;;;;;15.98;5.55;;;2.50;99.90;;;;;;5032011;28;20101;-62
2021/12/20 16:59:57;;;;;;;13.75;6.18;;;2.50;99.90;;;;;;5033629;28;20100;-62
2021/12/20 17:02:28;;;;;;;19.42;6.72;;;2.50;99.90;;;;;;5033775;28;20045;-61
2021/12/20 17:05:05;;;;;;;13.48;6.55;;;2.40;99.90;;;;;;5033663;28;20050;-62
2021/12/20 17:07:31;;;;;;;13.65;6.50;;;2.30;99.90;;;;;;5034351;28;20042;-62
2021/12/20 17:09:56;;;;;;;15.02;6.75;;;2.40;99.90;;;;;;5032348;28;20052;-61
2021/12/20 17:12:40;;;;;;;17.20;6.85;;;2.30;99.90;;;;;;5033665;28;20504;-62
2021/12/20 17:15:06;;;;;;;13.90;6.22;;;2.20;99.90;;;;;;5012638;28;20099;-61
2021/12/20 17:17:31;;;;;;;;;;;2.20;99.90;;;;;;5013947;28;20446;-61
2021/12/20 17:19:57;;;;;;;13.48;6.07;;;2.20;99.90;;;;;;5013860;28;19921;-62
2021/12/20 17:22:23;;;;;;;12.38;5.95;;;2.20;99.90;;;;;;5014508;28;20052;-60
2021/12/20 17:24:49;;;;;;;12.48;5.47;;;2.20;99.90;;;;;;5013834;28;20160;-63
2021/12/20 17:27:16;;;;;;;12.15;4.82;;;2.10;99.90;;;;;;5013696;28;20046;-61
2021/12/20 17:29:42;;;;;;;14.23;4.00;;;2.10;99.90;;;;;;5012422;28;20474;-61
2021/12/20 17:32:08;;;;;;;11.93;4.30;;;2.10;99.90;;;;;;5013663;28;20088;-61
2021/12/20 17:34:34;;;;;;;14.05;3.70;;;2.00;99.90;;;;;;5013928;28;20053;-63
2021/12/20 17:37:00;;;;;;;12.02;3.40;;;2.10;99.90;;;;;;5013207;28;20046;-62
2021/12/20 17:39:26;;;;;;;8.65;3.20;;;1.90;99.90;;;;;;5015816;28;20394;-62
2021/12/20 17:41:51;;;;;;;9.18;3.58;;;1.90;99.90;;;;;;5017756;28;20042;-61
2021/12/20 17:44:17;;;;;;;11.25;3.90;;;1.80;99.90;;;;;;5029781;28;20046;-62
2021/12/20 17:46:43;;;;;;;11.13;3.30;;;1.80;99.90;;;;;;5035786;28;20053;-62
2021/12/20 17:49:08;;;;;;;10.30;3.28;;;1.70;99.90;;;;;;5007774;28;20485;-62
2021/12/20 17:51:34;;;;;;;10.15;3.50;;;1.70;99.90;;;;;;5021585;28;20045;-61
2021/12/20 17:54:01;;;;;;;11.57;3.72;;;1.60;99.90;;;;;;5017754;28;20054;-62
2021/12/20 17:56:26;;;;;;;;;;;1.50;99.90;;;;;;5017671;28;20046;-62
2021/12/20 17:58:52;;;;;;;8.02;3.33;;;1.60;99.90;;;;;;5017047;28;20378;-62
2021/12/20 18:01:20;;;;;;;;;;;1.50;99.90;;;;;;5018872;28;20053;-61
2021/12/20 18:03:49;;;;;;;12.93;4.75;;;1.40;99.90;;;;;;5028760;28;19921;-62
2021/12/20 18:06:16;;;;;;;12.38;5.70;;;1.40;99.90;;;;;;5036866;28;20053;-63
2021/12/20 18:08:43;;;;;;;12.93;4.82;;;1.40;99.90;;;;;;5032329;28;20050;-62
2021/12/20 18:11:11;;;;;;;12.73;5.00;;;1.40;99.90;;;;;;5027163;28;20053;-62
2021/12/20 18:13:38;;;;;;;12.10;4.85;;;1.30;99.90;;;;;;5024768;28;20053;-61
2021/12/20 18:16:04;;;;;;;9.18;4.15;;;1.30;99.90;;;;;;5027335;28;20046;-62
2021/12/20 18:18:30;;;;;;;10.13;4.28;;;1.30;99.90;;;;;;5023134;28;20060;-62
2021/12/20 18:20:56;;;;;;;14.20;4.03;;;1.30;99.90;;;;;;5026510;28;20049;-61
2021/12/20 18:23:22;;;;;;;9.45;3.67;;;1.20;99.90;;;;;;5027562;28;20041;-62
2021/12/20 18:25:47;;;;;;;11.25;3.47;;;1.20;99.90;;;;;;5025371;28;20386;-62
2021/12/20 18:28:13;;;;;;;11.90;3.85;;;1.20;99.90;;;;;;5026181;28;20102;-61
2021/12/20 18:30:39;;;;;;;8.75;3.63;;;1.10;99.90;;;;;;5027015;28;20100;-62
2021/12/20 18:33:09;;;;;;;9.75;3.15;;;1.10;99.90;;;;;;5025047;28;20042;-61
2021/12/20 18:35:34;;;;;;;12.00;3.30;;;1.10;99.90;;;;;;5039686;28;20077;-62
2021/12/20 18:38:00;;;;;;;8.18;3.33;;;1.00;99.90;;;;;;5022029;28;20069;-62
2021/12/20 18:40:26;;;;;;;8.52;3.65;;;1.00;99.90;;;;;;5027520;28;20037;-62
2021/12/20 18:42:52;;;;;;;13.65;3.92;;;1.00;99.90;;;;;;5024831;28;20390;-61
2021/12/20 18:45:18;;;;;;;8.95;3.40;;;0.90;99.90;;;;;;5032016;28;20045;-61
2021/12/20 18:47:44;;;;;;;11.52;4.47;;;0.90;99.90;;;;;;5031267;28;20057;-61
2021/12/20 18:50:10;;;;;;;9.18;3.65;;;0.90;99.90;;;;;;5023810;28;20057;-63
2021/12/20 18:52:37;;;;;;;8.38;3.30;;;0.80;99.90;;;;;;5022493;28;20049;-61
2021/12/20 18:55:04;;;;;;;9.77;3.65;;;0.90;99.90;;;;;;5022755;28;20418;-62
2021/12/20 18:57:29;;;;;;;13.75;3.90;;;0.80;99.90;;;;;;5024308;28;20111;-63
2021/12/20 18:59:55;;;;;;;9.32;3.30;;;0.80;99.90;;;;;;5026338;28;20442;-61
2021/12/20 19:02:21;;;;;;;10.93;3.55;;;0.80;99.90;;;;;;5024457;28;20125;-62
2021/12/20 19:04:47;;;;;;;8.02;3.38;;;0.80;99.90;;;;;;5025250;28;20046;-62
2021/12/20 19:07:13;;;;;;;8.70;3.60;;;0.80;99.90;;;;;;5025430;28;20145;-62
2021/12/20 19:09:45;;;;;;;7.50;3.45;;;0.80;99.90;;;;;;5023631;28;20052;-60
2021/12/20 19:12:16;;;;;;;9.65;3.42;;;0.70;99.90;;;;;;5023870;28;20038;-60
2021/12/20 19:14:43;;;;;;;9.32;3.50;;;0.70;99.90;;;;;;5025640;28;20050;-61
2021/12/20 19:17:10;;;;;;;13.23;3.90;;;0.70;99.90;;;;;;5025487;28;20041;-61
2021/12/20 19:19:36;;;;;;;11.77;4.05;;;0.60;99.90;;;;;;5025729;28;20052;-61
2021/12/20 19:22:03;;;;;;;8.52;3.60;;;0.60;99.90;;;;;;5023787;28;20045;-61
2021/12/20 19:24:30;;;;;;;9.40;3.65;;;0.60;99.90;;;;;;5032240;28;20049;-61
2021/12/20 19:26:56;;;;;;;9.73;3.78;;;0.50;99.90;;;;;;5031696;28;20051;-60
2021/12/20 19:29:24;;;;;;;13.88;4.07;;;0.40;99.90;;;;;;5033360;28;20119;-61
2021/12/20 19:31:49;;;;;;;10.50;4.53;;;0.40;99.90;;;;;;5032697;28;20068;-62
2021/12/20 19:34:21;;;;;;;8.43;5.10;;;0.40;99.90;;;;;;5035087;28;20045;-61
2021/12/20 19:36:49;;;;;;;10.65;4.43;;;0.30;99.90;;;;;;5035050;28;20452;-61
2021/12/20 19:39:14;;;;;;;11.65;5.40;;;0.30;99.90;;;;;;5034007;28;20061;-60
2021/12/20 19:41:42;;;;;;;17.30;7.68;;;0.30;99.90;;;;;;5035091;28;20111;-61
2021/12/20 19:44:10;;;;;;;14.70;6.38;;;0.20;99.90;;;;;;5035049;28;20088;-61
2021/12/20 19:46:35;;;;;;;15.38;6.28;;;0.20;99.90;;;;;;5034067;28;20120;-61
2021/12/20 19:49:02;;;;;;;14.02;6.45;;;0.20;99.90;;;;;;5033865;28;20133;-61
2021/12/20 19:51:28;;;;;;;12.88;4.90;;;0.10;99.90;;;;;;5035047;28;20163;-60
2021/12/20 19:53:54;;;;;;;15.77;5.93;;;0.10;99.90;;;;;;5034844;28;20072;-60
2021/12/20 19:56:21;;;;;;;15.45;6.40;;;0.10;99.90;;;;;;5033834;28;20477;-61
2021/12/20 19:58:47;;;;;;;;;;;0.10;99.90;;;;;;5033870;28;20053;-60
2021/12/20 20:01:13;;;;;;;14.02;6.10;;;0.10;99.90;;;;;;5034060;28;19921;-60
2021/12/20 20:03:39;;;;;;;;;;;0.10;99.90;;;;;;5035108;28;20045;-60
2021/12/20 20:06:05;;;;;;;17.85;8.23;;;0.10;99.90;;;;;;5034328;28;20335;-60
2021/12/20 20:08:31;;;;;;;15.13;8.23;;;0.10;99.90;;;;;;5034535;28;20106;-61
2021/12/20 20:10:56;;;;;;;14.98;8.05;;;0.00;99.90;;;;;;5034663;28;20050;-62
2021/12/20 20:13:27;;;;;;;11.85;7.15;;;0.00;99.90;;;;;;5034638;28;20415;-61
2021/12/20 20:15:58;;;;;;;16.65;7.57;;;0.00;99.90;;;;;;5034552;28;20060;-61
2021/12/20 20:18:29;;;;;;;14.55;7.53;;;0.00;99.90;;;;;;5032683;28;20061;-60
2021/12/20 20:20:56;;;;;;;15.15;7.85;;;-0.10;99.90;;;;;;5034400;28;20079;-62
2021/12/20 20:23:22;;;;;;;13.52;7.93;;;-0.10;99.90;;;;;;5034954;28;20129;-62
2021/12/20 20:25:49;;;;;;;;;;;-0.10;99.90;;;;;;5050441;28;20049;-61
2021/12/20 20:28:16;;;;;;;17.65;9.25;;;-0.10;99.90;;;;;;5034540;28;19925;-61
2021/12/20 20:30:41;;;;;;;19.05;8.75;;;-0.20;99.90;;;;;;5033120;28;20054;-60
2021/12/20 20:33:07;;;;;;;18.75;10.23;;;-0.20;99.90;;;;;;5034736;28;20045;-61
2021/12/20 20:35:33;;;;;;;20.13;9.23;;;-0.10;99.90;;;;;;5034181;28;20524;-60
2021/12/20 20:38:00;;;;;;;19.17;9.63;;;-0.10;99.90;;;;;;5033902;28;20081;-60
2021/12/20 20:40:26;;;;;;;21.15;10.25;;;-0.10;99.90;;;;;;5034539;28;20095;-61
2021/12/20 20:42:51;;;;;;;19.38;10.60;;;-0.10;99.90;;;;;;5034106;28;20045;-61
2021/12/20 20:45:19;;;;;;;23.48;12.85;;;-0.10;99.90;;;;;;5033511;28;20045;-61
2021/12/20 20:47:44;;;;;;;21.00;11.82;;;-0.10;99.90;;;;;;5034155;28;20103;-61
2021/12/20 20:50:11;;;;;;;23.50;11.50;;;-0.10;99.90;;;;;;5033858;28;20057;-61
2021/12/20 20:52:38;;;;;;;18.33;9.88;;;-0.20;99.90;;;;;;5033856;28;20414;-60
2021/12/20 20:55:04;;;;;;;18.02;9.23;;;-0.20;99.90;;;;;;5033764;28;20501;-60
2021/12/20 20:57:32;;;;;;;18.77;9.55;;;-0.20;99.90;;;;;;5032527;28;20107;-60
2021/12/20 20:59:58;;;;;;;18.08;8.73;;;-0.20;99.90;;;;;;5034373;28;20057;-61
2021/12/20 21:02:24;;;;;;;20.02;8.70;;;-0.30;99.90;;;;;;5010228;28;20113;-61
2021/12/20 21:04:50;;;;;;;18.33;7.97;;;-0.30;99.90;;;;;;5022436;28;20132;-63
2021/12/20 21:07:17;;;;;;;16.17;7.88;;;-0.40;99.90;;;;;;5024386;28;20044;-62
2021/12/20 21:09:44;;;;;;;16.50;7.63;;;-0.40;99.90;;;;;;5023432;28;20111;-61
2021/12/20 21:12:14;;;;;;;15.93;7.47;;;-0.40;99.90;;;;;;5022460;28;20142;-62
2021/12/20 21:14:41;;;;;;;18.42;7.78;;;-0.40;99.90;;;;;;5025433;28;20057;-62
2021/12/20 21:17:08;;;;;;;17.33;7.90;;;-0.50;99.90;;;;;;5017724;28;20092;-63
2021/12/20 21:19:34;;;;;;;15.85;7.70;;;-0.50;99.90;;;;;;5025079;28;20119;-61
2021/12/20 21:22:01;;;;;;;14.82;7.32;;;-0.50;99.90;;;;;;5045217;28;20519;-61
2021/12/20 21:24:27;;;;;;;16.38;7.97;;;-0.60;99.90;;;;;;5052532;28;20493;-61
2021/12/20 21:27:21;;;;;;;;;;;-0.60;99.90;;;;;;5040267;28;20041;-61
2021/12/20 21:29:46;;;;;;;11.57;6.67;;;-0.60;99.90;;;;;;5032199;28;20395;-62
2021/12/20 21:32:13;;;;;;;15.45;6.90;;;-0.60;99.90;;;;;;5029131;28;20124;-62
